sensor_id;sensor_type;location;lat;lon;timestamp;P1;durP1;ratioP1;P2;durP2;ratioP2
20695;SDS011;10507;52.754;13.040;2023-03-01T00:01:40;10.60;;;6.40;;
20695;SDS011;10507;52.754;13.040;2023-03-01T00:04:08;11.50;;;6.63;;
20695;SDS011;10507;52.754;13.040;2023-03-01T00:06:36;10.37;;;6.73;;
20695;SDS011;10507;52.754;13.040;2023-03-01T00:09:04;7.50;;;5.30;;
20695;SDS011;10507;52.754;13.040;2023-03-01T00:11:34;10.80;;;5.43;;
20695;SDS011;10507;52.754;13.040;2023-03-01T00:14:02;8.47;;;5.43;;
20695;SDS011;10507;52.754;13.040;2023-03-01T00:16:31;9.90;;;5.93;;
20695;SDS011;10507;52.754;13.040;2023-03-01T00:19:01;7.40;;;5.47;;
20695;SDS011;10507;52.754;13.040;2023-03-01T00:21:29;7.63;;;4.97;;
20695;SDS011;10507;52.754;13.040;2023-03-01T00:23:57;9.43;;;5.70;;
20695;SDS011;10507;52.754;13.040;2023-03-01T00:26:25;9.33;;;5.90;;
20695;SDS011;10507;52.754;13.040;2023-03-01T00:28:56;8.80;;;5.57;;
20695;SDS011;10507;52.754;13.040;2023-03-01T00:31:26;9.47;;;5.73;;
20695;SDS011;10507;52.754;13.040;2023-03-01T00:33:55;9.10;;;5.83;;
20695;SDS011;10507;52.754;13.040;2023-03-01T00:36:25;12.17;;;7.30;;
20695;SDS011;10507;52.754;13.040;2023-03-01T00:38:55;9.47;;;6.20;;
20695;SDS011;10507;52.754;13.040;2023-03-01T00:41:23;12.70;;;6.27;;
20695;SDS011;10507;52.754;13.040;2023-03-01T00:43:52;9.37;;;6.73;;
20695;SDS011;10507;52.754;13.040;2023-03-01T00:46:22;11.37;;;6.13;;
20695;SDS011;10507;52.754;13.040;2023-03-01T00:48:51;9.43;;;6.50;;
20695;SDS011;10507;52.754;13.040;2023-03-01T00:51:19;7.80;;;5.97;;
20695;SDS011;10507;52.754;13.040;2023-03-01T00:53:49;9.73;;;5.90;;
20695;SDS011;10507;52.754;13.040;2023-03-01T00:56:18;9.50;;;5.80;;
20695;SDS011;10507;52.754;13.040;2023-03-01T00:58:46;9.77;;;5.77;;
20695;SDS011;10507;52.754;13.040;2023-03-01T01:01:17;9.17;;;6.03;;
20695;SDS011;10507;52.754;13.040;2023-03-01T01:03:46;9.73;;;6.07;;
20695;SDS011;10507;52.754;13.040;2023-03-01T01:06:16;9.60;;;5.10;;
20695;SDS011;10507;52.754;13.040;2023-03-01T01:08:44;7.03;;;4.60;;
20695;SDS011;10507;52.754;13.040;2023-03-01T01:11:12;8.40;;;5.40;;
20695;SDS011;10507;52.754;13.040;2023-03-01T01:13:40;9.17;;;5.40;;
20695;SDS011;10507;52.754;13.040;2023-03-01T01:16:08;6.27;;;4.60;;
20695;SDS011;10507;52.754;13.040;2023-03-01T01:18:38;10.53;;;5.63;;
20695;SDS011;10507;52.754;13.040;2023-03-01T01:21:07;9.53;;;5.27;;
20695;SDS011;10507;52.754;13.040;2023-03-01T01:23:38;8.13;;;5.10;;
20695;SDS011;10507;52.754;13.040;2023-03-01T01:26:07;9.73;;;5.50;;
20695;SDS011;10507;52.754;13.040;2023-03-01T01:28:36;7.83;;;5.23;;
20695;SDS011;10507;52.754;13.040;2023-03-01T01:31:04;7.00;;;5.27;;
20695;SDS011;10507;52.754;13.040;2023-03-01T01:33:32;7.90;;;5.23;;
20695;SDS011;10507;52.754;13.040;2023-03-01T01:36:26;9.13;;;5.40;;
20695;SDS011;10507;52.754;13.040;2023-03-01T01:38:55;8.57;;;5.90;;
20695;SDS011;10507;52.754;13.040;2023-03-01T01:41:23;8.67;;;5.67;;
20695;SDS011;10507;52.754;13.040;2023-03-01T01:46:43;11.43;;;6.03;;
20695;SDS011;10507;52.754;13.040;2023-03-01T01:49:17;10.50;;;6.60;;
20695;SDS011;10507;52.754;13.040;2023-03-01T01:52:00;10.77;;;6.13;;
20695;SDS011;10507;52.754;13.040;2023-03-01T01:54:37;9.50;;;6.87;;
20695;SDS011;10507;52.754;13.040;2023-03-01T01:57:10;9.47;;;5.53;;
20695;SDS011;10507;52.754;13.040;2023-03-01T01:59:42;10.20;;;5.83;;
20695;SDS011;10507;52.754;13.040;2023-03-01T02:02:12;9.93;;;5.80;;
20695;SDS011;10507;52.754;13.040;2023-03-01T02:04:41;10.97;;;6.70;;
20695;SDS011;10507;52.754;13.040;2023-03-01T02:07:13;8.20;;;5.83;;
20695;SDS011;10507;52.754;13.040;2023-03-01T02:09:43;14.17;;;6.40;;
20695;SDS011;10507;52.754;13.040;2023-03-01T02:12:14;10.87;;;6.30;;
20695;SDS011;10507;52.754;13.040;2023-03-01T02:14:44;11.87;;;6.63;;
20695;SDS011;10507;52.754;13.040;2023-03-01T02:17:12;9.97;;;6.63;;
20695;SDS011;10507;52.754;13.040;2023-03-01T02:19:45;10.07;;;6.50;;
20695;SDS011;10507;52.754;13.040;2023-03-01T02:22:24;12.47;;;6.77;;
20695;SDS011;10507;52.754;13.040;2023-03-01T02:25:01;15.00;;;7.97;;
20695;SDS011;10507;52.754;13.040;2023-03-01T02:27:40;9.53;;;6.57;;
20695;SDS011;10507;52.754;13.040;2023-03-01T02:32:45;8.57;;;5.40;;
20695;SDS011;10507;52.754;13.040;2023-03-01T02:35:13;9.47;;;5.77;;
20695;SDS011;10507;52.754;13.040;2023-03-01T02:37:43;10.40;;;5.83;;
20695;SDS011;10507;52.754;13.040;2023-03-01T02:40:13;8.77;;;5.77;;
20695;SDS011;10507;52.754;13.040;2023-03-01T02:42:45;7.37;;;5.27;;
20695;SDS011;10507;52.754;13.040;2023-03-01T02:45:19;8.57;;;6.17;;
20695;SDS011;10507;52.754;13.040;2023-03-01T02:47:49;9.33;;;5.30;;
20695;SDS011;10507;52.754;13.040;2023-03-01T02:50:22;8.03;;;5.20;;
20695;SDS011;10507;52.754;13.040;2023-03-01T02:53:02;8.10;;;5.43;;
20695;SDS011;10507;52.754;13.040;2023-03-01T02:55:36;9.60;;;5.57;;
20695;SDS011;10507;52.754;13.040;2023-03-01T02:58:08;10.00;;;5.80;;
20695;SDS011;10507;52.754;13.040;2023-03-01T03:00:40;9.17;;;5.30;;
20695;SDS011;10507;52.754;13.040;2023-03-01T03:03:36;9.27;;;6.27;;
20695;SDS011;10507;52.754;13.040;2023-03-01T03:06:28;10.20;;;5.93;;
20695;SDS011;10507;52.754;13.040;2023-03-01T03:08:59;9.27;;;5.50;;
20695;SDS011;10507;52.754;13.040;2023-03-01T03:11:27;13.33;;;6.30;;
20695;SDS011;10507;52.754;13.040;2023-03-01T03:13:55;11.73;;;6.67;;
20695;SDS011;10507;52.754;13.040;2023-03-01T03:16:49;11.53;;;7.13;;
20695;SDS011;10507;52.754;13.040;2023-03-01T03:19:18;9.10;;;6.50;;
20695;SDS011;10507;52.754;13.040;2023-03-01T03:21:47;11.80;;;6.70;;
20695;SDS011;10507;52.754;13.040;2023-03-01T03:24:15;13.17;;;7.43;;
20695;SDS011;10507;52.754;13.040;2023-03-01T03:27:08;12.27;;;6.90;;
20695;SDS011;10507;52.754;13.040;2023-03-01T03:30:01;12.17;;;6.73;;
20695;SDS011;10507;52.754;13.040;2023-03-01T03:32:54;12.00;;;7.00;;
20695;SDS011;10507;52.754;13.040;2023-03-01T03:35:25;9.83;;;6.53;;
20695;SDS011;10507;52.754;13.040;2023-03-01T03:37:56;13.93;;;8.13;;
20695;SDS011;10507;52.754;13.040;2023-03-01T03:41:00;10.93;;;7.17;;
20695;SDS011;10507;52.754;13.040;2023-03-01T03:43:53;11.10;;;7.17;;
20695;SDS011;10507;52.754;13.040;2023-03-01T03:46:52;10.73;;;6.80;;
20695;SDS011;10507;52.754;13.040;2023-03-01T03:49:45;12.50;;;7.30;;
20695;SDS011;10507;52.754;13.040;2023-03-01T03:52:13;10.37;;;6.07;;
20695;SDS011;10507;52.754;13.040;2023-03-01T03:54:44;11.47;;;7.03;;
20695;SDS011;10507;52.754;13.040;2023-03-01T03:57:12;10.57;;;6.90;;
20695;SDS011;10507;52.754;13.040;2023-03-01T03:59:39;12.47;;;6.93;;
20695;SDS011;10507;52.754;13.040;2023-03-01T04:02:32;12.90;;;6.73;;
20695;SDS011;10507;52.754;13.040;2023-03-01T04:05:25;13.07;;;6.83;;
20695;SDS011;10507;52.754;13.040;2023-03-01T04:07:55;11.00;;;6.87;;
20695;SDS011;10507;52.754;13.040;2023-03-01T04:10:31;10.80;;;6.50;;
20695;SDS011;10507;52.754;13.040;2023-03-01T04:13:25;10.67;;;7.23;;
20695;SDS011;10507;52.754;13.040;2023-03-01T04:15:53;12.57;;;7.37;;
20695;SDS011;10507;52.754;13.040;2023-03-01T04:18:23;10.00;;;6.70;;
20695;SDS011;10507;52.754;13.040;2023-03-01T04:20:53;12.77;;;7.93;;
20695;SDS011;10507;52.754;13.040;2023-03-01T04:23:22;14.23;;;7.07;;
20695;SDS011;10507;52.754;13.040;2023-03-01T04:25:54;12.77;;;7.57;;
20695;SDS011;10507;52.754;13.040;2023-03-01T04:28:24;11.40;;;7.67;;
20695;SDS011;10507;52.754;13.040;2023-03-01T04:30:54;11.73;;;7.30;;
20695;SDS011;10507;52.754;13.040;2023-03-01T04:33:23;9.70;;;6.67;;
20695;SDS011;10507;52.754;13.040;2023-03-01T04:35:53;11.60;;;7.50;;
20695;SDS011;10507;52.754;13.040;2023-03-01T04:38:21;11.00;;;7.07;;
20695;SDS011;10507;52.754;13.040;2023-03-01T04:40:49;10.07;;;6.90;;
20695;SDS011;10507;52.754;13.040;2023-03-01T04:43:18;13.80;;;6.93;;
20695;SDS011;10507;52.754;13.040;2023-03-01T04:45:46;14.10;;;7.80;;
20695;SDS011;10507;52.754;13.040;2023-03-01T04:48:14;13.00;;;7.47;;
20695;SDS011;10507;52.754;13.040;2023-03-01T04:50:42;16.30;;;7.70;;
20695;SDS011;10507;52.754;13.040;2023-03-01T04:53:11;11.30;;;7.47;;
20695;SDS011;10507;52.754;13.040;2023-03-01T04:55:39;13.53;;;7.43;;
20695;SDS011;10507;52.754;13.040;2023-03-01T04:58:07;12.07;;;6.90;;
20695;SDS011;10507;52.754;13.040;2023-03-01T05:00:35;10.43;;;7.17;;
20695;SDS011;10507;52.754;13.040;2023-03-01T05:03:03;12.63;;;7.27;;
20695;SDS011;10507;52.754;13.040;2023-03-01T05:05:31;12.03;;;7.17;;
20695;SDS011;10507;52.754;13.040;2023-03-01T05:08:03;11.33;;;8.70;;
20695;SDS011;10507;52.754;13.040;2023-03-01T05:10:34;11.17;;;6.20;;
20695;SDS011;10507;52.754;13.040;2023-03-01T05:13:06;13.20;;;7.53;;
20695;SDS011;10507;52.754;13.040;2023-03-01T05:15:34;10.07;;;6.47;;
20695;SDS011;10507;52.754;13.040;2023-03-01T05:18:02;12.40;;;7.00;;
20695;SDS011;10507;52.754;13.040;2023-03-01T05:20:33;14.37;;;7.80;;
20695;SDS011;10507;52.754;13.040;2023-03-01T05:23:02;11.17;;;7.47;;
20695;SDS011;10507;52.754;13.040;2023-03-01T05:25:32;13.33;;;6.83;;
20695;SDS011;10507;52.754;13.040;2023-03-01T05:28:06;10.63;;;6.33;;
20695;SDS011;10507;52.754;13.040;2023-03-01T05:30:38;10.10;;;6.67;;
20695;SDS011;10507;52.754;13.040;2023-03-01T05:33:06;11.63;;;7.77;;
20695;SDS011;10507;52.754;13.040;2023-03-01T05:35:45;10.83;;;6.80;;
20695;SDS011;10507;52.754;13.040;2023-03-01T05:38:15;9.63;;;6.33;;
20695;SDS011;10507;52.754;13.040;2023-03-01T05:40:45;10.67;;;7.47;;
20695;SDS011;10507;52.754;13.040;2023-03-01T05:43:15;14.73;;;7.43;;
20695;SDS011;10507;52.754;13.040;2023-03-01T05:45:44;11.37;;;7.27;;
20695;SDS011;10507;52.754;13.040;2023-03-01T05:48:13;8.97;;;7.30;;
20695;SDS011;10507;52.754;13.040;2023-03-01T05:50:42;12.03;;;7.40;;
20695;SDS011;10507;52.754;13.040;2023-03-01T05:53:11;10.63;;;6.83;;
20695;SDS011;10507;52.754;13.040;2023-03-01T05:55:41;12.03;;;7.77;;
20695;SDS011;10507;52.754;13.040;2023-03-01T05:58:12;15.40;;;8.60;;
20695;SDS011;10507;52.754;13.040;2023-03-01T06:00:42;16.17;;;9.10;;
20695;SDS011;10507;52.754;13.040;2023-03-01T06:03:12;12.70;;;8.03;;
20695;SDS011;10507;52.754;13.040;2023-03-01T06:05:41;10.93;;;7.27;;
20695;SDS011;10507;52.754;13.040;2023-03-01T06:08:10;12.87;;;7.70;;
20695;SDS011;10507;52.754;13.040;2023-03-01T06:10:38;12.60;;;8.43;;
20695;SDS011;10507;52.754;13.040;2023-03-01T06:13:06;16.07;;;8.60;;
20695;SDS011;10507;52.754;13.040;2023-03-01T06:15:36;11.50;;;7.50;;
20695;SDS011;10507;52.754;13.040;2023-03-01T06:18:04;13.23;;;7.20;;
20695;SDS011;10507;52.754;13.040;2023-03-01T06:20:32;15.03;;;8.87;;
20695;SDS011;10507;52.754;13.040;2023-03-01T06:22:59;13.67;;;8.33;;
20695;SDS011;10507;52.754;13.040;2023-03-01T06:25:27;12.60;;;8.07;;
20695;SDS011;10507;52.754;13.040;2023-03-01T06:27:55;10.43;;;7.67;;
20695;SDS011;10507;52.754;13.040;2023-03-01T06:30:23;14.27;;;7.90;;
20695;SDS011;10507;52.754;13.040;2023-03-01T06:32:54;12.03;;;7.30;;
20695;SDS011;10507;52.754;13.040;2023-03-01T06:35:27;11.33;;;7.20;;
20695;SDS011;10507;52.754;13.040;2023-03-01T06:37:59;12.63;;;7.63;;
20695;SDS011;10507;52.754;13.040;2023-03-01T06:40:28;8.67;;;5.83;;
20695;SDS011;10507;52.754;13.040;2023-03-01T06:42:57;13.20;;;6.50;;
20695;SDS011;10507;52.754;13.040;2023-03-01T06:45:25;10.87;;;5.87;;
20695;SDS011;10507;52.754;13.040;2023-03-01T06:47:57;11.53;;;6.40;;
20695;SDS011;10507;52.754;13.040;2023-03-01T06:50:29;12.30;;;6.57;;
20695;SDS011;10507;52.754;13.040;2023-03-01T06:52:57;16.00;;;8.40;;
20695;SDS011;10507;52.754;13.040;2023-03-01T06:55:25;11.50;;;7.57;;
20695;SDS011;10507;52.754;13.040;2023-03-01T06:57:54;14.80;;;7.80;;
20695;SDS011;10507;52.754;13.040;2023-03-01T07:00:22;10.83;;;6.80;;
20695;SDS011;10507;52.754;13.040;2023-03-01T07:02:51;11.13;;;7.10;;
20695;SDS011;10507;52.754;13.040;2023-03-01T07:05:20;12.50;;;7.50;;
20695;SDS011;10507;52.754;13.040;2023-03-01T07:07:48;12.03;;;6.97;;
20695;SDS011;10507;52.754;13.040;2023-03-01T07:10:16;14.73;;;8.90;;
20695;SDS011;10507;52.754;13.040;2023-03-01T07:12:44;16.47;;;10.43;;
20695;SDS011;10507;52.754;13.040;2023-03-01T07:15:12;18.20;;;10.60;;
20695;SDS011;10507;52.754;13.040;2023-03-01T07:17:41;16.03;;;10.33;;
20695;SDS011;10507;52.754;13.040;2023-03-01T07:20:11;14.53;;;9.03;;
20695;SDS011;10507;52.754;13.040;2023-03-01T07:22:41;12.10;;;7.47;;
20695;SDS011;10507;52.754;13.040;2023-03-01T07:25:12;12.23;;;7.70;;
20695;SDS011;10507;52.754;13.040;2023-03-01T07:27:40;11.27;;;7.30;;
20695;SDS011;10507;52.754;13.040;2023-03-01T07:30:08;14.10;;;9.63;;
20695;SDS011;10507;52.754;13.040;2023-03-01T07:32:37;19.93;;;12.97;;
20695;SDS011;10507;52.754;13.040;2023-03-01T07:35:05;19.07;;;11.77;;
20695;SDS011;10507;52.754;13.040;2023-03-01T07:37:34;16.63;;;9.70;;
20695;SDS011;10507;52.754;13.040;2023-03-01T07:40:03;14.53;;;9.57;;
20695;SDS011;10507;52.754;13.040;2023-03-01T07:42:32;16.83;;;11.73;;
20695;SDS011;10507;52.754;13.040;2023-03-01T07:45:01;14.40;;;8.80;;
20695;SDS011;10507;52.754;13.040;2023-03-01T07:47:30;12.57;;;7.97;;
20695;SDS011;10507;52.754;13.040;2023-03-01T07:49:58;12.60;;;8.07;;
20695;SDS011;10507;52.754;13.040;2023-03-01T07:52:27;13.63;;;8.37;;
20695;SDS011;10507;52.754;13.040;2023-03-01T07:54:55;12.30;;;8.10;;
20695;SDS011;10507;52.754;13.040;2023-03-01T07:57:25;13.33;;;8.23;;
20695;SDS011;10507;52.754;13.040;2023-03-01T07:59:52;13.90;;;8.13;;
20695;SDS011;10507;52.754;13.040;2023-03-01T08:02:20;12.77;;;8.30;;
20695;SDS011;10507;52.754;13.040;2023-03-01T08:04:48;12.40;;;8.20;;
20695;SDS011;10507;52.754;13.040;2023-03-01T08:07:16;12.47;;;7.87;;
20695;SDS011;10507;52.754;13.040;2023-03-01T08:09:44;12.07;;;8.40;;
20695;SDS011;10507;52.754;13.040;2023-03-01T08:12:11;14.53;;;9.00;;
20695;SDS011;10507;52.754;13.040;2023-03-01T08:14:41;13.00;;;8.70;;
20695;SDS011;10507;52.754;13.040;2023-03-01T08:17:08;13.63;;;9.13;;
20695;SDS011;10507;52.754;13.040;2023-03-01T08:19:37;12.37;;;8.30;;
20695;SDS011;10507;52.754;13.040;2023-03-01T08:22:05;14.57;;;8.97;;
20695;SDS011;10507;52.754;13.040;2023-03-01T08:24:33;15.60;;;8.97;;
20695;SDS011;10507;52.754;13.040;2023-03-01T08:27:00;12.50;;;7.83;;
20695;SDS011;10507;52.754;13.040;2023-03-01T08:29:30;12.53;;;8.50;;
20695;SDS011;10507;52.754;13.040;2023-03-01T08:31:59;13.67;;;8.33;;
20695;SDS011;10507;52.754;13.040;2023-03-01T08:34:27;15.03;;;7.60;;
20695;SDS011;10507;52.754;13.040;2023-03-01T08:36:57;12.67;;;6.67;;
20695;SDS011;10507;52.754;13.040;2023-03-01T08:39:26;11.50;;;6.53;;
20695;SDS011;10507;52.754;13.040;2023-03-01T08:41:54;11.47;;;6.83;;
20695;SDS011;10507;52.754;13.040;2023-03-01T08:44:22;9.33;;;6.57;;
20695;SDS011;10507;52.754;13.040;2023-03-01T08:46:50;11.47;;;6.90;;
20695;SDS011;10507;52.754;13.040;2023-03-01T08:49:21;10.13;;;7.07;;
20695;SDS011;10507;52.754;13.040;2023-03-01T08:51:49;11.43;;;6.30;;
20695;SDS011;10507;52.754;13.040;2023-03-01T08:54:18;9.37;;;5.20;;
20695;SDS011;10507;52.754;13.040;2023-03-01T08:56:48;9.13;;;5.50;;
20695;SDS011;10507;52.754;13.040;2023-03-01T08:59:16;8.37;;;5.20;;
20695;SDS011;10507;52.754;13.040;2023-03-01T09:01:45;9.43;;;5.63;;
20695;SDS011;10507;52.754;13.040;2023-03-01T09:04:14;8.77;;;5.63;;
20695;SDS011;10507;52.754;13.040;2023-03-01T09:06:43;8.20;;;5.47;;
20695;SDS011;10507;52.754;13.040;2023-03-01T09:09:12;10.93;;;6.97;;
20695;SDS011;10507;52.754;13.040;2023-03-01T09:11:42;10.57;;;6.73;;
20695;SDS011;10507;52.754;13.040;2023-03-01T09:14:12;16.63;;;7.10;;
20695;SDS011;10507;52.754;13.040;2023-03-01T09:16:41;9.20;;;5.10;;
20695;SDS011;10507;52.754;13.040;2023-03-01T09:26:03;9.47;;;5.00;;
20695;SDS011;10507;52.754;13.040;2023-03-01T09:28:55;7.30;;;4.43;;
20695;SDS011;10507;52.754;13.040;2023-03-01T09:31:48;8.70;;;4.30;;
20695;SDS011;10507;52.754;13.040;2023-03-01T09:34:39;6.67;;;4.23;;
20695;SDS011;10507;52.754;13.040;2023-03-01T09:37:46;8.27;;;4.90;;
20695;SDS011;10507;52.754;13.040;2023-03-01T09:40:43;7.40;;;4.10;;
20695;SDS011;10507;52.754;13.040;2023-03-01T09:43:39;5.77;;;4.10;;
20695;SDS011;10507;52.754;13.040;2023-03-01T09:46:36;6.30;;;3.80;;
20695;SDS011;10507;52.754;13.040;2023-03-01T09:49:33;5.33;;;3.70;;
20695;SDS011;10507;52.754;13.040;2023-03-01T09:52:03;10.87;;;4.03;;
20695;SDS011;10507;52.754;13.040;2023-03-01T09:54:39;6.40;;;3.30;;
20695;SDS011;10507;52.754;13.040;2023-03-01T09:57:36;5.60;;;2.90;;
20695;SDS011;10507;52.754;13.040;2023-03-01T10:00:23;5.00;;;2.80;;
20695;SDS011;10507;52.754;13.040;2023-03-01T10:03:02;5.53;;;3.00;;
20695;SDS011;10507;52.754;13.040;2023-03-01T10:06:04;5.93;;;2.93;;
20695;SDS011;10507;52.754;13.040;2023-03-01T10:09:04;4.03;;;2.50;;
20695;SDS011;10507;52.754;13.040;2023-03-01T10:12:02;5.43;;;2.63;;
20695;SDS011;10507;52.754;13.040;2023-03-01T10:15:02;5.63;;;2.90;;
20695;SDS011;10507;52.754;13.040;2023-03-01T10:18:01;5.40;;;3.20;;
20695;SDS011;10507;52.754;13.040;2023-03-01T10:20:58;4.73;;;2.90;;
20695;SDS011;10507;52.754;13.040;2023-03-01T10:23:30;4.83;;;2.83;;
20695;SDS011;10507;52.754;13.040;2023-03-01T10:26:08;8.00;;;3.30;;
20695;SDS011;10507;52.754;13.040;2023-03-01T10:28:47;5.33;;;3.10;;
20695;SDS011;10507;52.754;13.040;2023-03-01T10:31:27;5.40;;;2.30;;
20695;SDS011;10507;52.754;13.040;2023-03-01T10:34:07;4.07;;;2.70;;
20695;SDS011;10507;52.754;13.040;2023-03-01T10:36:38;4.80;;;2.90;;
20695;SDS011;10507;52.754;13.040;2023-03-01T10:39:11;5.63;;;2.47;;
20695;SDS011;10507;52.754;13.040;2023-03-01T10:41:51;3.80;;;2.13;;
20695;SDS011;10507;52.754;13.040;2023-03-01T10:44:35;3.90;;;2.60;;
20695;SDS011;10507;52.754;13.040;2023-03-01T10:47:16;4.43;;;2.47;;
20695;SDS011;10507;52.754;13.040;2023-03-01T10:49:57;5.50;;;2.87;;
20695;SDS011;10507;52.754;13.040;2023-03-01T10:52:32;7.10;;;3.33;;
20695;SDS011;10507;52.754;13.040;2023-03-01T10:55:02;5.70;;;2.23;;
20695;SDS011;10507;52.754;13.040;2023-03-01T10:57:45;2.83;;;1.77;;
20695;SDS011;10507;52.754;13.040;2023-03-01T11:00:21;4.10;;;2.30;;
20695;SDS011;10507;52.754;13.040;2023-03-01T11:03:03;4.27;;;2.07;;
20695;SDS011;10507;52.754;13.040;2023-03-01T11:05:49;6.53;;;2.40;;
20695;SDS011;10507;52.754;13.040;2023-03-01T11:08:29;5.50;;;2.53;;
20695;SDS011;10507;52.754;13.040;2023-03-01T11:11:29;5.53;;;2.60;;
20695;SDS011;10507;52.754;13.040;2023-03-01T11:14:00;4.73;;;2.80;;
20695;SDS011;10507;52.754;13.040;2023-03-01T11:16:57;4.80;;;2.60;;
20695;SDS011;10507;52.754;13.040;2023-03-01T11:19:28;6.33;;;3.00;;
20695;SDS011;10507;52.754;13.040;2023-03-01T11:21:59;4.90;;;2.73;;
20695;SDS011;10507;52.754;13.040;2023-03-01T11:24:33;6.33;;;2.73;;
20695;SDS011;10507;52.754;13.040;2023-03-01T11:27:12;5.10;;;2.77;;
20695;SDS011;10507;52.754;13.040;2023-03-01T11:29:46;4.03;;;2.63;;
20695;SDS011;10507;52.754;13.040;2023-03-01T11:32:18;5.00;;;2.80;;
20695;SDS011;10507;52.754;13.040;2023-03-01T11:34:53;8.30;;;3.20;;
20695;SDS011;10507;52.754;13.040;2023-03-01T11:37:33;5.47;;;2.63;;
20695;SDS011;10507;52.754;13.040;2023-03-01T11:40:09;4.27;;;2.53;;
20695;SDS011;10507;52.754;13.040;2023-03-01T11:42:43;7.90;;;2.97;;
20695;SDS011;10507;52.754;13.040;2023-03-01T11:45:17;4.40;;;2.47;;
20695;SDS011;10507;52.754;13.040;2023-03-01T11:48:01;4.70;;;2.57;;
20695;SDS011;10507;52.754;13.040;2023-03-01T11:50:41;5.30;;;2.77;;
20695;SDS011;10507;52.754;13.040;2023-03-01T11:53:26;4.90;;;2.60;;
20695;SDS011;10507;52.754;13.040;2023-03-01T11:56:09;4.67;;;2.60;;
20695;SDS011;10507;52.754;13.040;2023-03-01T11:58:57;3.93;;;2.50;;
20695;SDS011;10507;52.754;13.040;2023-03-01T12:02:00;4.90;;;2.70;;
20695;SDS011;10507;52.754;13.040;2023-03-01T12:04:55;5.17;;;2.50;;
20695;SDS011;10507;52.754;13.040;2023-03-01T12:07:48;4.50;;;2.70;;
20695;SDS011;10507;52.754;13.040;2023-03-01T12:10:22;3.77;;;2.07;;
20695;SDS011;10507;52.754;13.040;2023-03-01T12:12:57;4.20;;;2.40;;
20695;SDS011;10507;52.754;13.040;2023-03-01T12:15:40;4.23;;;2.40;;
20695;SDS011;10507;52.754;13.040;2023-03-01T12:18:29;4.40;;;2.47;;
20695;SDS011;10507;52.754;13.040;2023-03-01T12:21:13;5.17;;;3.13;;
20695;SDS011;10507;52.754;13.040;2023-03-01T12:24:04;5.40;;;3.00;;
20695;SDS011;10507;52.754;13.040;2023-03-01T12:27:02;4.57;;;2.40;;
20695;SDS011;10507;52.754;13.040;2023-03-01T12:29:40;5.93;;;2.70;;
20695;SDS011;10507;52.754;13.040;2023-03-01T12:32:18;4.17;;;2.50;;
20695;SDS011;10507;52.754;13.040;2023-03-01T12:35:05;5.10;;;2.90;;
20695;SDS011;10507;52.754;13.040;2023-03-01T12:37:49;6.03;;;2.93;;
20695;SDS011;10507;52.754;13.040;2023-03-01T12:40:29;4.07;;;2.67;;
20695;SDS011;10507;52.754;13.040;2023-03-01T12:43:08;4.57;;;2.70;;
20695;SDS011;10507;52.754;13.040;2023-03-01T12:46:02;6.50;;;3.03;;
20695;SDS011;10507;52.754;13.040;2023-03-01T12:48:40;5.13;;;2.60;;
20695;SDS011;10507;52.754;13.040;2023-03-01T12:51:15;6.10;;;2.83;;
20695;SDS011;10507;52.754;13.040;2023-03-01T12:53:49;6.60;;;3.20;;
20695;SDS011;10507;52.754;13.040;2023-03-01T12:56:22;3.90;;;2.43;;
20695;SDS011;10507;52.754;13.040;2023-03-01T12:58:55;4.47;;;2.43;;
20695;SDS011;10507;52.754;13.040;2023-03-01T13:01:40;6.10;;;3.00;;
20695;SDS011;10507;52.754;13.040;2023-03-01T13:04:15;6.70;;;3.67;;
20695;SDS011;10507;52.754;13.040;2023-03-01T13:06:53;7.43;;;3.13;;
20695;SDS011;10507;52.754;13.040;2023-03-01T13:09:28;4.73;;;3.07;;
20695;SDS011;10507;52.754;13.040;2023-03-01T13:12:02;4.97;;;3.10;;
20695;SDS011;10507;52.754;13.040;2023-03-01T13:14:44;5.10;;;2.97;;
20695;SDS011;10507;52.754;13.040;2023-03-01T13:17:33;5.80;;;3.57;;
20695;SDS011;10507;52.754;13.040;2023-03-01T13:20:15;5.03;;;3.00;;
20695;SDS011;10507;52.754;13.040;2023-03-01T13:22:46;4.77;;;2.80;;
20695;SDS011;10507;52.754;13.040;2023-03-01T13:25:20;4.90;;;3.17;;
20695;SDS011;10507;52.754;13.040;2023-03-01T13:30:59;5.70;;;3.43;;
20695;SDS011;10507;52.754;13.040;2023-03-01T13:33:41;7.57;;;3.90;;
20695;SDS011;10507;52.754;13.040;2023-03-01T13:39:26;8.13;;;3.63;;
20695;SDS011;10507;52.754;13.040;2023-03-01T13:41:58;6.10;;;3.10;;
20695;SDS011;10507;52.754;13.040;2023-03-01T13:44:29;6.00;;;3.10;;
20695;SDS011;10507;52.754;13.040;2023-03-01T13:47:03;5.20;;;3.53;;
20695;SDS011;10507;52.754;13.040;2023-03-01T13:49:45;8.60;;;4.83;;
20695;SDS011;10507;52.754;13.040;2023-03-01T13:55:15;6.37;;;4.13;;
20695;SDS011;10507;52.754;13.040;2023-03-01T13:57:46;6.27;;;3.30;;
20695;SDS011;10507;52.754;13.040;2023-03-01T14:00:30;6.10;;;3.30;;
20695;SDS011;10507;52.754;13.040;2023-03-01T14:03:08;8.07;;;4.07;;
20695;SDS011;10507;52.754;13.040;2023-03-01T14:05:39;6.83;;;3.50;;
20695;SDS011;10507;52.754;13.040;2023-03-01T14:08:21;8.87;;;3.33;;
20695;SDS011;10507;52.754;13.040;2023-03-01T14:10:57;6.83;;;3.93;;
20695;SDS011;10507;52.754;13.040;2023-03-01T14:13:39;8.13;;;4.10;;
20695;SDS011;10507;52.754;13.040;2023-03-01T14:16:20;6.33;;;3.80;;
20695;SDS011;10507;52.754;13.040;2023-03-01T14:18:59;8.17;;;3.30;;
20695;SDS011;10507;52.754;13.040;2023-03-01T14:21:39;6.33;;;3.90;;
20695;SDS011;10507;52.754;13.040;2023-03-01T14:24:14;7.23;;;3.93;;
20695;SDS011;10507;52.754;13.040;2023-03-01T14:26:44;8.27;;;4.10;;
20695;SDS011;10507;52.754;13.040;2023-03-01T14:29:33;7.57;;;3.53;;
20695;SDS011;10507;52.754;13.040;2023-03-01T14:32:11;5.47;;;3.63;;
20695;SDS011;10507;52.754;13.040;2023-03-01T14:34:46;5.20;;;3.13;;
20695;SDS011;10507;52.754;13.040;2023-03-01T14:37:18;7.40;;;4.03;;
20695;SDS011;10507;52.754;13.040;2023-03-01T14:39:48;6.50;;;3.63;;
20695;SDS011;10507;52.754;13.040;2023-03-01T14:42:17;7.43;;;3.40;;
20695;SDS011;10507;52.754;13.040;2023-03-01T14:44:48;4.83;;;3.37;;
20695;SDS011;10507;52.754;13.040;2023-03-01T14:47:22;8.53;;;4.33;;
20695;SDS011;10507;52.754;13.040;2023-03-01T14:49:57;6.37;;;3.67;;
20695;SDS011;10507;52.754;13.040;2023-03-01T14:52:31;5.57;;;3.53;;
20695;SDS011;10507;52.754;13.040;2023-03-01T14:55:03;6.67;;;3.83;;
20695;SDS011;10507;52.754;13.040;2023-03-01T14:57:34;4.93;;;3.23;;
20695;SDS011;10507;52.754;13.040;2023-03-01T15:00:06;6.27;;;2.90;;
20695;SDS011;10507;52.754;13.040;2023-03-01T15:02:35;6.43;;;3.10;;
20695;SDS011;10507;52.754;13.040;2023-03-01T15:05:07;8.70;;;4.27;;
20695;SDS011;10507;52.754;13.040;2023-03-01T15:07:38;5.17;;;3.00;;
20695;SDS011;10507;52.754;13.040;2023-03-01T15:10:14;6.27;;;3.83;;
20695;SDS011;10507;52.754;13.040;2023-03-01T15:12:46;5.47;;;3.07;;
20695;SDS011;10507;52.754;13.040;2023-03-01T15:15:35;6.67;;;3.17;;
20695;SDS011;10507;52.754;13.040;2023-03-01T15:18:06;6.23;;;3.30;;
20695;SDS011;10507;52.754;13.040;2023-03-01T15:20:47;8.27;;;3.23;;
20695;SDS011;10507;52.754;13.040;2023-03-01T15:23:18;5.27;;;3.07;;
20695;SDS011;10507;52.754;13.040;2023-03-01T15:25:49;4.93;;;2.90;;
20695;SDS011;10507;52.754;13.040;2023-03-01T15:28:23;5.07;;;2.23;;
20695;SDS011;10507;52.754;13.040;2023-03-01T15:30:54;3.83;;;2.37;;
20695;SDS011;10507;52.754;13.040;2023-03-01T15:33:29;4.27;;;2.40;;